Time;durP1;ratioP1;P1;durP2;ratioP2;P2;SDS_P1;SDS_P2;PMS_P1;PMS_P2;Temp;Humidity;BMP_temperature;BMP_pressure;BME280_temperature;BME280_humidity;BME280_pressure;Samples;Min_cycle;Max_cycle;Signal;HPM_P1;HPM_P2
2021/12/22 00:01:26;;;;;;;;;;;22.70;18.90;;;;;;5141791;27;20370;-57
2021/12/22 00:03:52;;;;;;;;;;;23.00;18.60;;;;;;5145667;27;19923;-60
2021/12/22 00:06:21;;;;;;;;;;;21.40;19.70;;;;;;5126120;27;20384;-53
2021/12/22 00:08:47;;;;;;;;;;;21.70;19.80;;;;;;5142015;27;20006;-51
2021/12/22 00:11:12;;;;;;;;;;;22.50;19.00;;;;;;5146871;27;20324;-53
2021/12/22 00:13:38;;;;;;;;;;;22.80;18.70;;;;;;5141691;27;19930;-54
2021/12/22 00:16:04;;;;;;;;;;;23.00;18.50;;;;;;5141784;27;19975;-57
2021/12/22 00:18:30;;;;;;;;;;;22.70;18.70;;;;;;5146730;27;19927;-54
2021/12/22 00:20:56;;;;;;;;;;;21.30;20.10;;;;;;5141660;27;20006;-54
2021/12/22 00:23:22;;;;;;;;;;;22.30;19.10;;;;;;5141813;27;19927;-56
2021/12/22 00:25:47;;;;;;;;;;;22.70;18.70;;;;;;5147071;27;19923;-55
2021/12/22 00:28:13;;;;;;;;;;;23.00;18.50;;;;;;5122803;27;19931;-53
2021/12/22 00:30:39;;;;;;;;;;;21.80;19.30;;;;;;5146980;27;20018;-55
2021/12/22 00:33:07;;;;;;;;;;;21.60;19.80;;;;;;5122135;27;19923;-59
2021/12/22 00:35:45;;;;;;;;;;;22.40;18.90;;;;;;5140801;27;19923;-54
2021/12/22 00:38:14;;;;;;;;;;;22.80;18.60;;;;;;5146710;27;19929;-54
2021/12/22 00:40:40;;;;;;;;;;;23.00;18.40;;;;;;5141686;27;20309;-55
2021/12/22 00:43:05;;;;;;;;;;;22.60;18.60;;;;;;5141620;27;19930;-53
2021/12/22 00:45:33;;;;;;;;;;;21.30;20.00;;;;;;5146873;27;19978;-49
2021/12/22 00:47:59;;;;;;;;;;;22.30;19.00;;;;;;5141275;27;19923;-49
2021/12/22 00:50:25;;;;;;;;;;;22.70;18.60;;;;;;5142157;27;20381;-58
2021/12/22 00:52:51;;;;;;;;;;;23.00;18.40;;;;;;5125178;27;19923;-60
2021/12/22 00:55:19;;;;;;;;;;;22.70;18.50;;;;;;5140742;27;19923;-54
2021/12/22 00:57:45;;;;;;;;;;;21.30;19.90;;;;;;5146832;27;19926;-49
2021/12/22 01:00:11;;;;;;;;;;;22.20;19.00;;;;;;5140856;27;20025;-48
2021/12/22 01:02:37;;;;;;;;;;;22.70;18.50;;;;;;5140910;27;19927;-47
2021/12/22 01:05:03;;;;;;;;;;;23.00;18.30;;;;;;5146150;27;19930;-48
2021/12/22 01:07:29;;;;;;;;;;;23.20;18.20;;;;;;5140991;27;19927;-53
2021/12/22 01:09:55;;;;;;;;;;;20.50;20.30;;;;;;5140540;27;20339;-51
2021/12/22 01:12:20;;;;;;;;;;;22.00;19.10;;;;;;5145990;27;19922;-54
2021/12/22 01:14:46;;;;;;;;;;;22.60;18.50;;;;;;5140630;27;20309;-51
2021/12/22 01:17:14;;;;;;;;;;;22.90;18.30;;;;;;5146469;27;19923;-51
2021/12/22 01:19:50;;;;;;;;;;;23.20;18.10;;;;;;5140890;27;19923;-60
2021/12/22 01:22:50;;;;;;;;;;;22.20;18.70;;;;;;5140713;27;19924;-57
2021/12/22 01:25:10;;;;;;;;;;;21.60;19.30;;;;;;5139523;27;19967;-61
2021/12/22 01:27:39;;;;;;;;;;;22.50;18.50;;;;;;5142653;27;20010;-51
2021/12/22 01:30:25;;;;;;;;;;;22.80;18.20;;;;;;5140242;27;19937;-54
2021/12/22 01:32:52;;;;;;;;;;;23.10;18.00;;;;;;5144768;27;20026;-59
2021/12/22 01:35:18;;;;;;;;;;;20.30;20.20;;;;;;5123245;27;19930;-56
2021/12/22 01:37:44;;;;;;;;;;;21.90;18.90;;;;;;5140445;27;19955;-50
2021/12/22 01:40:10;;;;;;;;;;;22.60;18.30;;;;;;5145988;27;19924;-52
2021/12/22 01:42:36;;;;;;;;;;;22.80;18.10;;;;;;5140274;27;20431;-55
2021/12/22 01:50:17;;;;;;;;;;;21.60;19.00;;;;;;5143493;27;19942;-58
2021/12/22 01:52:43;;;;;;;;;;;22.50;18.30;;;;;;5144177;27;19927;-59
2021/12/22 01:55:24;;;;;;;;;;;22.90;18.00;;;;;;5149399;27;19939;-58
2021/12/22 01:57:50;;;;;;;;;;;23.10;17.80;;;;;;5144007;27;19923;-54
2021/12/22 02:00:16;;;;;;;;;;;22.00;18.60;;;;;;5144023;27;20315;-57
2021/12/22 02:02:42;;;;;;;;;;;21.60;19.00;;;;;;5130580;27;19927;-52
2021/12/22 02:05:08;;;;;;;;;;;22.40;18.30;;;;;;5143153;27;19970;-50
2021/12/22 02:07:34;;;;;;;;;;;22.80;18.00;;;;;;5130388;27;19973;-54
2021/12/22 02:10:08;;;;;;;;;;;23.00;17.80;;;;;;5143621;27;20020;-59
2021/12/22 02:12:39;;;;;;;;;;;22.40;18.20;;;;;;5144107;27;19929;-54
2021/12/22 02:15:05;;;;;;;;;;;21.50;19.20;;;;;;5149209;27;20425;-54
2021/12/22 02:17:31;;;;;;;;;;;22.40;18.30;;;;;;5143674;27;20363;-55
2021/12/22 02:19:56;;;;;;;;;;;22.80;18.00;;;;;;5143426;27;19930;-54
2021/12/22 02:22:23;;;;;;;;;;;23.00;17.90;;;;;;5130402;27;19976;-58
2021/12/22 02:24:51;;;;;;;;;;;23.20;17.70;;;;;;5143430;27;19994;-53
2021/12/22 02:27:24;;;;;;;;;;;20.30;20.20;;;;;;5143145;27;19923;-57
2021/12/22 02:29:57;;;;;;;;;;;21.80;18.90;;;;;;5149248;27;19954;-52
2021/12/22 02:35:02;;;;;;;;;;;22.80;18.00;;;;;;5144494;27;20328;-59
2021/12/22 02:37:29;;;;;;;;;;;23.10;17.80;;;;;;5148581;27;19927;-55
2021/12/22 02:40:08;;;;;;;;;;;22.40;18.30;;;;;;5143252;27;20374;-57
2021/12/22 02:42:35;;;;;;;;;;;21.40;19.30;;;;;;5147569;27;19978;-58
2021/12/22 02:45:07;;;;;;;;;;;22.30;18.50;;;;;;5144502;27;19975;-53
2021/12/22 02:47:33;;;;;;;;;;;22.80;18.20;;;;;;5143276;27;19948;-57
2021/12/22 02:49:58;;;;;;;;;;;23.00;18.00;;;;;;5148612;27;19927;-59
2021/12/22 02:52:32;;;;;;;;;;;22.20;18.60;;;;;;5143241;27;20298;-54
2021/12/22 02:54:58;;;;;;;;;;;21.60;19.30;;;;;;5143373;27;20028;-53
2021/12/22 02:57:35;;;;;;;;;;;22.40;18.50;;;;;;5147780;27;19923;-56
2021/12/22 03:02:40;;;;;;;;;;;23.00;18.00;;;;;;5142651;27;20014;-54
2021/12/22 03:05:06;;;;;;;;;;;23.20;17.90;;;;;;5148105;27;20294;-57
2021/12/22 03:07:32;;;;;;;;;;;20.70;20.10;;;;;;5143001;27;19950;-56
2021/12/22 03:10:04;;;;;;;;;;;22.00;19.00;;;;;;5142741;27;20195;-52
2021/12/22 03:12:32;;;;;;;;;;;22.60;18.50;;;;;;5148311;27;20397;-54
2021/12/22 03:14:58;;;;;;;;;;;22.90;18.20;;;;;;5142682;27;20014;-56
2021/12/22 03:17:24;;;;;;;;;;;23.10;18.00;;;;;;5147399;27;19923;-61
2021/12/22 03:19:49;;;;;;;;;;;20.90;19.60;;;;;;5143611;27;19927;-59
2021/12/22 03:22:19;;;;;;;;;;;21.80;19.00;;;;;;5123363;27;20146;-55
2021/12/22 03:24:47;;;;;;;;;;;22.50;18.50;;;;;;5147968;27;19931;-59
2021/12/22 03:27:12;;;;;;;;;;;22.80;18.20;;;;;;5142603;27;19923;-54
2021/12/22 03:29:38;;;;;;;;;;;23.00;18.00;;;;;;5142576;27;19927;-56
2021/12/22 03:32:05;;;;;;;;;;;23.20;17.90;;;;;;5148083;27;19934;-54
2021/12/22 03:34:31;;;;;;;;;;;20.90;19.60;;;;;;5142280;27;20013;-57
2021/12/22 03:36:56;;;;;;;;;;;21.80;19.00;;;;;;5142424;27;19971;-59
2021/12/22 03:39:22;;;;;;;;;;;22.50;18.50;;;;;;5147746;27;20334;-55
2021/12/22 03:41:48;;;;;;;;;;;22.80;18.10;;;;;;5141749;27;19923;-55
2021/12/22 03:44:14;;;;;;;;;;;23.00;18.00;;;;;;5147921;27;19927;-52
2021/12/22 03:46:39;;;;;;;;;;;21.00;19.50;;;;;;5142356;27;19923;-56
2021/12/22 03:49:06;;;;;;;;;;;21.70;19.10;;;;;;5142446;27;20387;-54
2021/12/22 03:51:32;;;;;;;;;;;22.40;18.50;;;;;;5147522;27;20349;-54
2021/12/22 03:53:57;;;;;;;;;;;22.80;18.20;;;;;;5141959;27;19923;-53
2021/12/22 03:56:23;;;;;;;;;;;23.00;18.00;;;;;;5141933;27;19963;-60
2021/12/22 03:58:49;;;;;;;;;;;22.60;18.20;;;;;;5147141;27;20380;-58
2021/12/22 04:01:15;;;;;;;;;;;21.30;19.50;;;;;;5141922;27;19929;-59
2021/12/22 04:03:43;;;;;;;;;;;22.20;18.70;;;;;;5147668;27;19931;-59
2021/12/22 04:06:09;;;;;;;;;;;22.70;18.30;;;;;;5141907;27;20075;-59
2021/12/22 04:08:35;;;;;;;;;;;22.90;18.10;;;;;;5140731;27;20339;-59
2021/12/22 04:11:01;;;;;;;;;;;23.10;17.90;;;;;;5147207;27;19923;-56
2021/12/22 04:13:26;;;;;;;;;;;21.60;18.90;;;;;;5121551;27;19946;-58
2021/12/22 04:15:52;;;;;;;;;;;21.70;19.10;;;;;;5141465;27;19944;-52
2021/12/22 04:18:18;;;;;;;;;;;22.50;18.40;;;;;;5146674;27;19923;-50
2021/12/22 04:20:44;;;;;;;;;;;22.80;18.10;;;;;;5141678;27;20412;-53
2021/12/22 04:23:10;;;;;;;;;;;23.00;17.90;;;;;;5145128;27;20048;-59
2021/12/22 04:25:36;;;;;;;;;;;22.70;18.10;;;;;;5142155;27;19931;-57
2021/12/22 04:28:05;;;;;;;;;;;20.60;20.10;;;;;;5141851;27;19956;-54
2021/12/22 04:30:32;;;;;;;;;;;21.80;18.90;;;;;;5147035;27;19923;-57
2021/12/22 04:32:59;;;;;;;;;;;22.40;18.30;;;;;;5141456;27;19923;-54
2021/12/22 04:35:24;;;;;;;;;;;22.70;18.10;;;;;;5141276;27;20780;-54
2021/12/22 04:37:50;;;;;;;;;;;22.90;18.00;;;;;;5146848;27;20362;-53
2021/12/22 04:40:16;;;;;;;;;;;23.10;17.80;;;;;;5141771;27;19923;-54
2021/12/22 04:42:42;;;;;;;;;;;22.00;18.50;;;;;;5142944;27;19926;-60
2021/12/22 04:45:09;;;;;;;;;;;21.30;19.30;;;;;;5145752;27;19927;-56
2021/12/22 04:47:35;;;;;;;;;;;22.20;18.50;;;;;;5141173;27;19991;-58
2021/12/22 04:50:01;;;;;;;;;;;22.60;18.10;;;;;;5146632;27;19923;-57
2021/12/22 04:52:35;;;;;;;;;;;22.80;18.00;;;;;;5140819;27;19927;-58
2021/12/22 04:55:04;;;;;;;;;;;23.10;17.80;;;;;;5140661;27;20045;-58
2021/12/22 04:57:30;;;;;;;;;;;22.30;18.30;;;;;;5147024;27;20009;-56
2021/12/22 04:59:56;;;;;;;;;;;21.20;19.40;;;;;;5141021;27;20392;-58
2021/12/22 05:02:22;;;;;;;;;;;22.10;18.60;;;;;;5140813;27;20259;-54
2021/12/22 05:04:47;;;;;;;;;;;22.60;18.20;;;;;;5146246;27;20336;-56
2021/12/22 05:07:13;;;;;;;;;;;22.80;18.00;;;;;;5140761;27;19927;-56
2021/12/22 05:09:39;;;;;;;;;;;23.00;17.80;;;;;;5145868;27;19947;-56
2021/12/22 05:12:05;;;;;;;;;;;22.90;17.80;;;;;;5141076;27;19946;-56
2021/12/22 05:14:31;;;;;;;;;;;20.30;20.10;;;;;;5140367;27;20437;-53
2021/12/22 05:17:01;;;;;;;;;;;21.80;18.80;;;;;;5146493;27;19923;-57
2021/12/22 05:19:27;;;;;;;;;;;22.40;18.20;;;;;;5140138;27;19934;-56
2021/12/22 05:21:53;;;;;;;;;;;22.70;18.00;;;;;;5140778;27;20358;-57
2021/12/22 05:24:18;;;;;;;;;;;22.90;17.80;;;;;;5146023;27;20418;-59
2021/12/22 05:26:44;;;;;;;;;;;22.60;18.00;;;;;;5140726;27;19934;-56
2021/12/22 05:29:11;;;;;;;;;;;20.90;19.60;;;;;;5141693;27;19952;-58
2021/12/22 05:31:37;;;;;;;;;;;21.90;18.60;;;;;;5145175;27;19975;-59
2021/12/22 05:34:03;;;;;;;;;;;22.50;18.10;;;;;;5140626;27;20404;-58
2021/12/22 05:36:29;;;;;;;;;;;22.80;17.90;;;;;;5146218;27;19929;-59
2021/12/22 05:38:55;;;;;;;;;;;23.00;17.70;;;;;;5140567;27;20566;-57
2021/12/22 05:41:21;;;;;;;;;;;23.10;17.60;;;;;;5140874;27;19952;-53
2021/12/22 05:43:47;;;;;;;;;;;22.00;18.40;;;;;;5145728;27;20012;-56
2021/12/22 05:46:12;;;;;;;;;;;21.40;19.00;;;;;;5140304;27;20477;-55
2021/12/22 05:48:38;;;;;;;;;;;22.30;18.30;;;;;;5140182;27;19987;-57
2021/12/22 05:51:04;;;;;;;;;;;22.60;17.90;;;;;;5145349;27;19931;-55
2021/12/22 05:53:30;;;;;;;;;;;22.80;17.80;;;;;;5140615;27;19949;-59
2021/12/22 05:55:56;;;;;;;;;;;23.00;17.60;;;;;;5145832;27;19934;-58
2021/12/22 05:58:21;;;;;;;;;;;23.20;17.50;;;;;;5140489;27;19923;-55
2021/12/22 06:00:47;;;;;;;;;;;20.30;19.80;;;;;;5140158;27;19930;-58
2021/12/22 06:03:13;;;;;;;;;;;21.80;18.60;;;;;;5145428;27;19931;-57
2021/12/22 06:05:39;;;;;;;;;;;22.50;18.00;;;;;;5139692;27;19923;-57
2021/12/22 06:08:05;;;;;;;;;;;22.80;17.70;;;;;;5119308;27;19923;-57
2021/12/22 06:10:34;;;;;;;;;;;23.00;17.60;;;;;;5145262;27;19931;-58
2021/12/22 06:13:01;;;;;;;;;;;23.10;17.60;;;;;;5140556;27;20335;-56
2021/12/22 06:15:27;;;;;;;;;;;20.40;19.50;;;;;;5145578;27;20362;-57
2021/12/22 06:17:56;;;;;;;;;;;21.70;18.60;;;;;;5140290;27;19930;-60
2021/12/22 06:20:21;;;;;;;;;;;22.30;18.00;;;;;;5139847;27;19924;-58
2021/12/22 06:22:47;;;;;;;;;;;22.80;17.70;;;;;;5145325;27;19923;-60
2021/12/22 06:25:13;;;;;;;;;;;23.00;17.50;;;;;;5139623;27;19923;-59
2021/12/22 06:27:39;;;;;;;;;;;23.10;17.50;;;;;;5139444;27;19923;-58
2021/12/22 06:30:05;;;;;;;;;;;23.30;17.30;;;;;;5145736;27;19934;-58
2021/12/22 06:32:30;;;;;;;;;;;21.30;18.60;;;;;;5141829;27;20261;-57
2021/12/22 06:34:56;;;;;;;;;;;21.30;18.80;;;;;;5146089;27;19934;-61
2021/12/22 06:37:22;;;;;;;;;;;22.20;18.10;;;;;;5146738;27;19923;-58
2021/12/22 06:39:48;;;;;;;;;;;22.70;17.70;;;;;;5124867;27;19942;-59
2021/12/22 06:42:13;;;;;;;;;;;22.90;17.50;;;;;;5148686;27;20365;-58
2021/12/22 06:44:39;;;;;;;;;;;23.10;17.40;;;;;;5142908;27;20377;-59
2021/12/22 06:47:06;;;;;;;;;;;23.20;17.30;;;;;;5143084;27;19927;-54
2021/12/22 06:49:32;;;;;;;;;;;20.50;19.30;;;;;;5149070;27;19923;-55
2021/12/22 06:51:57;;;;;;;;;;;21.80;18.50;;;;;;5143454;27;19934;-59
2021/12/22 06:54:23;;;;;;;;;;;22.40;17.90;;;;;;5143517;27;19971;-58
2021/12/22 06:56:49;;;;;;;;;;;22.80;17.60;;;;;;5148144;27;19923;-56
2021/12/22 06:59:15;;;;;;;;;;;23.00;17.50;;;;;;5142960;27;19927;-55
2021/12/22 07:01:41;;;;;;;;;;;23.10;17.40;;;;;;5148269;27;19934;-59
2021/12/22 07:04:07;;;;;;;;;;;22.50;17.70;;;;;;5142763;27;20374;-59
2021/12/22 07:06:32;;;;;;;;;;;21.20;18.90;;;;;;5142681;27;19927;-60
2021/12/22 07:08:59;;;;;;;;;;;22.10;18.10;;;;;;5148488;27;19927;-60
2021/12/22 07:11:25;;;;;;;;;;;22.60;17.70;;;;;;5142735;27;19985;-60
2021/12/22 07:13:50;;;;;;;;;;;22.90;17.50;;;;;;5143015;27;19967;-60
2021/12/22 07:16:16;;;;;;;;;;;23.00;17.40;;;;;;5148340;27;19923;-60
2021/12/22 07:18:42;;;;;;;;;;;22.90;17.40;;;;;;5124284;27;19930;-57
2021/12/22 07:21:08;;;;;;;;;;;20.60;19.40;;;;;;5147835;27;20017;-59
2021/12/22 07:23:33;;;;;;;;;;;21.80;18.20;;;;;;5142249;27;20332;-60
2021/12/22 07:25:59;;;;;;;;;;;22.50;17.70;;;;;;5142984;27;19927;-60
2021/12/22 07:28:25;;;;;;;;;;;22.80;17.50;;;;;;5148082;27;19923;-61
2021/12/22 07:30:51;;;;;;;;;;;23.00;17.30;;;;;;5142779;27;19927;-59
2021/12/22 07:33:18;;;;;;;;;;;23.20;17.20;;;;;;5142759;27;20412;-56
2021/12/22 07:36:00;;;;;;;;;;;21.90;17.80;;;;;;5148079;27;19923;-55
2021/12/22 07:38:32;;;;;;;;;;;21.30;18.50;;;;;;5142170;27;20794;-58
2021/12/22 07:40:58;;;;;;;;;;;22.30;17.70;;;;;;5142037;27;19979;-56
2021/12/22 07:43:24;;;;;;;;;;;22.70;17.30;;;;;;5147673;27;20392;-58
2021/12/22 07:45:50;;;;;;;;;;;23.00;17.20;;;;;;5142527;27;19926;-57
2021/12/22 07:48:15;;;;;;;;;;;23.10;17.10;;;;;;5148018;27;20221;-58
2021/12/22 07:50:41;;;;;;;;;;;21.10;18.40;;;;;;5142554;27;19927;-53
2021/12/22 07:53:07;;;;;;;;;;;21.40;18.40;;;;;;5141932;27;19953;-59
2021/12/22 07:55:33;;;;;;;;;;;22.30;17.70;;;;;;5127159;27;19934;-55
2021/12/22 07:57:58;;;;;;;;;;;22.70;17.40;;;;;;5141629;27;19930;-59
2021/12/22 08:00:24;;;;;;;;;;;22.90;17.20;;;;;;5141758;27;20568;-60
2021/12/22 08:02:50;;;;;;;;;;;23.10;17.10;;;;;;5147651;27;19923;-59
2021/12/22 08:05:16;;;;;;;;;;;22.60;17.40;;;;;;5142059;27;19975;-56
2021/12/22 08:07:41;;;;;;;;;;;20.90;18.90;;;;;;5147342;27;19931;-58
2021/12/22 08:10:07;;;;;;;;;;;22.00;18.00;;;;;;5141927;27;19956;-59
2021/12/22 08:12:33;;;;;;;;;;;22.50;17.50;;;;;;5141711;27;19938;-60
2021/12/22 08:14:59;;;;;;;;;;;22.80;17.30;;;;;;5146882;27;19930;-60
2021/12/22 08:17:30;;;;;;;;;;;23.00;17.20;;;;;;5141341;27;19923;-60
2021/12/22 08:19:56;;;;;;;;;;;23.20;17.10;;;;;;5141860;27;19923;-58
2021/12/22 08:22:22;;;;;;;;;;;21.50;18.20;;;;;;5147260;27;20396;-57
2021/12/22 08:24:50;;;;;;;;;;;21.30;18.50;;;;;;5141487;27;20366;-58
2021/12/22 08:27:16;;;;;;;;;;;22.30;17.70;;;;;;5142894;27;19923;-58
2021/12/22 08:29:44;;;;;;;;;;;22.70;17.40;;;;;;5127582;27;20001;-58
2021/12/22 08:32:10;;;;;;;;;;;22.90;17.10;;;;;;5141440;27;19927;-59
2021/12/22 08:34:39;;;;;;;;;;;23.10;17.00;;;;;;5146875;27;19927;-59
2021/12/22 08:39:49;;;;;;;;;;;21.50;18.30;;;;;;5141809;27;20425;-59
2021/12/22 08:42:15;;;;;;;;;;;22.30;17.60;;;;;;5146814;27;19937;-60
2021/12/22 08:44:41;;;;;;;;;;;22.70;17.30;;;;;;5122935;27;19934;-57
2021/12/22 08:47:07;;;;;;;;;;;22.90;17.20;;;;;;5120884;27;19923;-60
2021/12/22 08:49:32;;;;;;;;;;;23.10;17.10;;;;;;5146725;27;19992;-51
2021/12/22 08:51:58;;;;;;;;;;;21.30;18.30;;;;;;5122406;27;19923;-55
2021/12/22 08:54:24;;;;;;;;;;;21.40;18.40;;;;;;5140730;27;19969;-58
2021/12/22 08:56:50;;;;;;;;;;;22.30;17.70;;;;;;5146017;27;19966;-55
2021/12/22 08:59:16;;;;;;;;;;;22.70;17.40;;;;;;5121956;27;19927;-53
2021/12/22 09:01:41;;;;;;;;;;;22.90;17.20;;;;;;5146643;27;20339;-55
2021/12/22 09:04:07;;;;;;;;;;;23.10;17.10;;;;;;5141111;27;19950;-59
2021/12/22 09:06:33;;;;;;;;;;;23.10;17.10;;;;;;5140762;27;19923;-55
2021/12/22 09:08:59;;;;;;;;;;;20.30;19.40;;;;;;5146206;27;19952;-60
2021/12/22 09:11:25;;;;;;;;;;;21.70;18.30;;;;;;5140712;27;19930;-59
2021/12/22 09:13:51;;;;;;;;;;;22.40;17.70;;;;;;5140457;27;20305;-59
2021/12/22 09:16:16;;;;;;;;;;;22.80;17.50;;;;;;5127884;27;19970;-57
2021/12/22 09:18:42;;;;;;;;;;;23.00;17.30;;;;;;5141019;27;20319;-59
2021/12/22 09:21:08;;;;;;;;;;;23.20;17.20;;;;;;5146342;27;20005;-57
2021/12/22 09:23:34;;;;;;;;;;;21.60;18.20;;;;;;5140773;27;19938;-57
2021/12/22 09:26:00;;;;;;;;;;;21.50;18.50;;;;;;5121825;27;19926;-56
2021/12/22 09:28:26;;;;;;;;;;;22.30;17.80;;;;;;5145701;27;19930;-58
2021/12/22 09:30:52;;;;;;;;;;;22.70;17.50;;;;;;5122577;27;19930;-57
2021/12/22 09:33:18;;;;;;;;;;;23.00;17.30;;;;;;5119393;28;20199;-56
2021/12/22 09:35:45;;;;;;;;;;;23.20;17.20;;;;;;5125668;28;19930;-58
2021/12/22 09:38:11;;;;;;;;;;;22.50;17.50;;;;;;5120186;28;19923;-55
2021/12/22 09:40:37;;;;;;;;;;;21.30;18.60;;;;;;5125462;28;19936;-60
2021/12/22 09:43:03;;;;;;;;;;;22.30;17.70;;;;;;5119654;28;20403;-57
2021/12/22 09:45:29;;;;;;;;;;;22.70;17.40;;;;;;5119646;28;19927;-59
2021/12/22 09:53:04;;;;;;;;;;;20.70;18.90;;;;;;5119809;28;19928;-57
2021/12/22 09:55:33;;;;;;;;;;;21.70;18.20;;;;;;5107001;28;19928;-53
2021/12/22 09:58:00;;;;;;;;;;;22.40;17.60;;;;;;5119809;28;20018;-54
2021/12/22 10:00:26;;;;;;;;;;;22.80;17.30;;;;;;5119564;28;20173;-57
2021/12/22 10:02:52;;;;;;;;;;;23.00;17.20;;;;;;5106563;28;19963;-59
2021/12/22 10:05:17;;;;;;;;;;;23.10;17.10;;;;;;5119590;27;19928;-54
2021/12/22 10:07:44;;;;;;;;;;;20.50;19.30;;;;;;5126741;28;19923;-57
2021/12/22 10:10:10;;;;;;;;;;;21.80;18.10;;;;;;5122493;28;19932;-57
2021/12/22 10:12:36;;;;;;;;;;;22.50;17.60;;;;;;5123175;28;19928;-57
2021/12/22 10:15:04;;;;;;;;;;;22.80;17.40;;;;;;5128309;28;19946;-56
2021/12/22 10:17:31;;;;;;;;;;;23.00;17.20;;;;;;5119303;28;19957;-59
2021/12/22 10:20:00;;;;;;;;;;;22.80;17.30;;;;;;5122943;28;20545;-50
2021/12/22 10:22:33;;;;;;;;;;;20.80;19.20;;;;;;5128215;28;19923;-59
2021/12/22 10:25:00;;;;;;;;;;;22.00;18.00;;;;;;5120545;28;19991;-59
2021/12/22 10:27:27;;;;;;;;;;;22.60;17.50;;;;;;5122435;28;19923;-57
2021/12/22 10:29:53;;;;;;;;;;;22.90;17.30;;;;;;5128153;28;19976;-58
2021/12/22 10:32:18;;;;;;;;;;;23.10;17.20;;;;;;5123075;28;20317;-57
2021/12/22 10:34:54;;;;;;;;;;;22.80;17.40;;;;;;5128570;28;19923;-51
2021/12/22 10:37:34;;;;;;;;;;;20.60;19.40;;;;;;5124072;28;19934;-58
2021/12/22 10:39:59;;;;;;;;;;;22.00;18.00;;;;;;5122427;28;19941;-56
2021/12/22 10:42:38;;;;;;;;;;;22.70;17.50;;;;;;5127853;28;20409;-57
2021/12/22 10:45:10;;;;;;;;;;;22.90;17.30;;;;;;5123049;28;19952;-58
2021/12/22 10:49:14;;;;;;;;;;;23.20;17.20;;;;;;5122473;28;19928;-56
2021/12/22 10:50:25;;;;;;;;;;;20.70;18.90;;;;;;5112465;28;19930;-56
2021/12/22 10:52:51;;;;;;;;;;;21.70;18.30;;;;;;5124261;28;19923;-52
2021/12/22 10:55:17;;;;;;;;;;;22.50;17.60;;;;;;5122708;28;20701;-55
2021/12/22 10:57:43;;;;;;;;;;;22.70;17.40;;;;;;5127555;28;19939;-57
2021/12/22 11:00:13;;;;;;;;;;;23.00;17.30;;;;;;5103688;28;19945;-58
2021/12/22 11:02:44;;;;;;;;;;;23.20;17.20;;;;;;5121823;28;19985;-55
2021/12/22 11:05:23;;;;;;;;;;;21.20;18.60;;;;;;5109520;28;20411;-53
2021/12/22 11:07:49;;;;;;;;;;;21.50;18.50;;;;;;5122610;28;20013;-52
2021/12/22 11:10:24;;;;;;;;;;;22.40;17.70;;;;;;5122185;28;20191;-51
2021/12/22 11:12:59;;;;;;;;;;;22.70;17.50;;;;;;5127666;28;20302;-51
2021/12/22 11:15:26;;;;;;;;;;;23.00;17.30;;;;;;5119380;28;19996;-52
2021/12/22 11:17:51;;;;;;;;;;;23.20;17.20;;;;;;5121728;27;20065;-52
2021/12/22 11:20:23;;;;;;;;;;;21.60;18.30;;;;;;5127471;28;19923;-56
2021/12/22 11:23:00;;;;;;;;;;;21.40;18.70;;;;;;5121497;28;20018;-51
2021/12/22 11:25:26;;;;;;;;;;;22.40;17.80;;;;;;5121871;28;19933;-58
2021/12/22 11:27:52;;;;;;;;;;;22.80;17.50;;;;;;5127569;28;20318;-57
2021/12/22 11:30:18;;;;;;;;;;;23.00;17.40;;;;;;5121580;28;20226;-59
2021/12/22 11:32:44;;;;;;;;;;;23.20;17.30;;;;;;5127416;28;19931;-56
2021/12/22 11:35:10;;;;;;;;;;;21.50;18.40;;;;;;5101637;28;19977;-54
2021/12/22 11:37:36;;;;;;;;;;;21.50;18.60;;;;;;5121545;28;19984;-55
2021/12/22 11:40:03;;;;;;;;;;;22.40;17.80;;;;;;5126724;28;19935;-54
2021/12/22 11:42:31;;;;;;;;;;;22.80;17.60;;;;;;5120997;28;20298;-55
2021/12/22 11:45:02;;;;;;;;;;;23.00;17.40;;;;;;5121803;28;19935;-59
2021/12/22 11:47:28;;;;;;;;;;;23.00;17.30;;;;;;5127141;28;19987;-49
2021/12/22 11:50:03;;;;;;;;;;;20.30;19.60;;;;;;5121704;28;20426;-54
2021/12/22 11:52:29;;;;;;;;;;;21.80;18.40;;;;;;5122883;28;19968;-59
2021/12/22 11:55:08;;;;;;;;;;;22.60;17.80;;;;;;5125782;28;20330;-51
2021/12/22 11:57:34;;;;;;;;;;;22.90;17.50;;;;;;5121209;28;20025;-52
2021/12/22 12:00:18;;;;;;;;;;;23.20;17.40;;;;;;5106976;28;19928;-53
2021/12/22 12:02:44;;;;;;;;;;;21.40;18.60;;;;;;5126908;28;19966;-54
2021/12/22 12:05:26;;;;;;;;;;;21.80;18.40;;;;;;5121531;28;19924;-53
2021/12/22 12:07:53;;;;;;;;;;;22.50;17.80;;;;;;5125314;28;19930;-59
2021/12/22 12:10:28;;;;;;;;;;;22.80;17.50;;;;;;5105737;28;19931;-59
2021/12/22 12:12:56;;;;;;;;;;;23.00;17.40;;;;;;5121335;28;20026;-54
2021/12/22 12:15:51;;;;;;;;;;;21.50;18.40;;;;;;5126090;28;19923;-55
2021/12/22 12:21:40;;;;;;;;;;;22.50;17.70;;;;;;5067980;28;19971;-58
2021/12/22 12:24:31;;;;;;;;;;;22.80;17.50;;;;;;5121098;28;19931;-57
2021/12/22 12:27:00;;;;;;;;;;;23.10;17.30;;;;;;5122711;28;20022;-53
2021/12/22 12:29:46;;;;;;;;;;;22.80;17.50;;;;;;5119315;27;21216;-50
2021/12/22 12:32:30;;;;;;;;;;;20.90;19.20;;;;;;5120936;28;19923;-52
2021/12/22 12:35:15;;;;;;;;;;;22.20;18.10;;;;;;5124989;28;20155;-58
2021/12/22 12:37:57;;;;;;;;;;;22.70;17.70;;;;;;5125727;28;19933;-53
2021/12/22 12:40:23;;;;;;;;;;;22.90;17.40;;;;;;5120888;28;19943;-52
2021/12/22 12:42:56;;;;;;;;;;;22.30;17.80;;;;;;5121627;28;19979;-57
2021/12/22 12:45:41;;;;;;;;;;;21.30;18.90;;;;;;5126140;28;19925;-57
2021/12/22 12:48:25;;;;;;;;;;;22.30;18.00;;;;;;5120428;28;19924;-56
2021/12/22 12:51:10;;;;;;;;;;;22.80;17.60;;;;;;5101872;28;19924;-53
2021/12/22 12:53:45;;;;;;;;;;;23.00;17.40;;;;;;5125567;28;19923;-58
2021/12/22 12:56:12;;;;;;;;;;;22.50;17.80;;;;;;5119747;28;19945;-55
2021/12/22 12:58:54;;;;;;;;;;;21.30;18.90;;;;;;5120683;28;20289;-57
2021/12/22 13:01:40;;;;;;;;;;;22.20;18.10;;;;;;5125815;28;20026;-57
2021/12/22 13:04:26;;;;;;;;;;;22.70;17.70;;;;;;5102748;28;20002;-56
2021/12/22 13:06:52;;;;;;;;;;;23.00;17.50;;;;;;5120158;28;20370;-58
2021/12/22 13:09:22;;;;;;;;;;;22.90;17.50;;;;;;5125855;28;19923;-52
2021/12/22 13:11:57;;;;;;;;;;;20.30;19.70;;;;;;5100070;28;19984;-55
2021/12/22 13:17:14;;;;;;;;;;;22.60;17.80;;;;;;5125935;28;19981;-57
2021/12/22 13:19:41;;;;;;;;;;;22.90;17.60;;;;;;5120456;28;20418;-57
2021/12/22 13:22:17;;;;;;;;;;;23.20;17.40;;;;;;5120364;28;20367;-57
2021/12/22 13:24:43;;;;;;;;;;;22.70;17.80;;;;;;5125479;28;19931;-57
2021/12/22 13:27:08;;;;;;;;;;;21.20;19.20;;;;;;5120054;28;19924;-57
2021/12/22 13:29:35;;;;;;;;;;;22.20;18.30;;;;;;5119811;28;20088;-58
2021/12/22 13:32:10;;;;;;;;;;;22.70;17.90;;;;;;5125022;28;19931;-56
2021/12/22 13:34:42;;;;;;;;;;;22.90;17.60;;;;;;5120130;28;19928;-57
2021/12/22 13:37:08;;;;;;;;;;;23.10;17.50;;;;;;5120261;28;19930;-55
2021/12/22 13:39:41;;;;;;;;;;;21.40;18.80;;;;;;5125644;28;19924;-53
2021/12/22 13:42:07;;;;;;;;;;;21.50;18.90;;;;;;5123023;27;19945;-59
2021/12/22 13:44:35;;;;;;;;;;;22.40;18.00;;;;;;5128845;28;19924;-54
2021/12/22 13:47:01;;;;;;;;;;;22.80;17.80;;;;;;5105427;28;20358;-52
2021/12/22 13:49:27;;;;;;;;;;;23.00;17.60;;;;;;5104805;28;19924;-55
2021/12/22 13:51:52;;;;;;;;;;;22.60;17.90;;;;;;5109883;28;19980;-53
2021/12/22 13:54:27;;;;;;;;;;;21.30;19.20;;;;;;5105365;28;20388;-57
2021/12/22 13:57:00;;;;;;;;;;;22.20;18.30;;;;;;5105204;28;20350;-59
2021/12/22 13:59:28;;;;;;;;;;;22.80;17.90;;;;;;5128808;28;20014;-57
2021/12/22 14:01:54;;;;;;;;;;;23.00;17.70;;;;;;5123138;28;19930;-58
2021/12/22 14:04:21;;;;;;;;;;;22.80;17.70;;;;;;5102915;28;19924;-54
2021/12/22 14:06:48;;;;;;;;;;;20.50;20.00;;;;;;5128338;28;19924;-54
2021/12/22 14:09:16;;;;;;;;;;;21.80;18.70;;;;;;5122621;28;20347;-57
2021/12/22 14:11:43;;;;;;;;;;;22.50;18.10;;;;;;5127551;28;19935;-59
2021/12/22 14:14:19;;;;;;;;;;;22.80;17.80;;;;;;5125148;28;19923;-51
2021/12/22 14:16:46;;;;;;;;;;;23.00;17.60;;;;;;5123201;28;20459;-55
2021/12/22 14:19:17;;;;;;;;;;;23.10;17.60;;;;;;5128436;28;20351;-52
2021/12/22 14:21:43;;;;;;;;;;;23.20;17.60;;;;;;5123347;28;19927;-54
2021/12/22 14:24:09;;;;;;;;;;;20.10;20.30;;;;;;5122748;28;20389;-53
2021/12/22 14:26:44;;;;;;;;;;;21.80;18.70;;;;;;5127870;28;19935;-54
2021/12/22 14:29:10;;;;;;;;;;;22.50;18.10;;;;;;5122474;28;20297;-54
2021/12/22 14:31:38;;;;;;;;;;;23.00;17.80;;;;;;5123093;28;19927;-59
2021/12/22 14:34:04;;;;;;;;;;;23.10;17.60;;;;;;5129236;28;19979;-52
2021/12/22 14:36:46;;;;;;;;;;;19.90;20.50;;;;;;5122919;28;19974;-50
2021/12/22 14:39:12;;;;;;;;;;;21.80;18.80;;;;;;5122529;28;20219;-57
2021/12/22 14:41:38;;;;;;;;;;;22.50;18.10;;;;;;5127985;28;19927;-55
2021/12/22 14:44:15;;;;;;;;;;;22.90;17.80;;;;;;5122918;28;20500;-57
2021/12/22 14:46:41;;;;;;;;;;;21.80;18.70;;;;;;5123078;28;19923;-57